createdAt,value
2019-04-11T00:00:28.100Z,5.29
2019-04-11T00:02:57.345Z,5.28
2019-04-11T00:05:26.530Z,5.17
2019-04-11T00:07:54.945Z,5.16
2019-04-11T00:10:24.911Z,5.19
2019-04-11T00:12:52.828Z,5.45
2019-04-11T00:15:21.766Z,5.26
2019-04-11T00:17:50.714Z,5.55
2019-04-11T00:20:20.163Z,5.33
2019-04-11T00:22:48.581Z,5.30
2019-04-11T00:25:17.758Z,5.20
2019-04-11T00:27:46.484Z,5.14
2019-04-11T00:30:15.695Z,5.16
2019-04-11T00:32:45.451Z,5.48
2019-04-11T00:35:13.390Z,5.31
2019-04-11T00:37:43.421Z,5.27
2019-04-11T00:40:11.226Z,5.26
2019-04-11T00:42:40.912Z,5.20
2019-04-11T00:45:09.589Z,5.12
2019-04-11T00:47:39.689Z,5.04
2019-04-11T00:50:07.482Z,5.04
2019-04-11T00:52:37.147Z,5.02
2019-04-11T00:55:05.375Z,5.00
2019-04-11T00:57:34.328Z,4.97
2019-04-11T01:00:03.432Z,4.97
2019-04-11T01:02:33.560Z,4.85
2019-04-11T01:05:01.388Z,4.80
2019-04-11T01:07:31.111Z,4.81
2019-04-11T01:09:59.073Z,4.73
2019-04-11T01:12:28.914Z,4.75
2019-04-11T01:14:57.378Z,4.77
2019-04-11T01:17:25.912Z,4.67
2019-04-11T01:19:55.291Z,4.74
2019-04-11T01:22:24.386Z,4.75
2019-04-11T01:24:52.533Z,4.72
2019-04-11T01:27:21.660Z,4.92
2019-04-11T01:29:51.479Z,4.77
2019-04-11T01:32:19.229Z,4.68
2019-04-11T01:34:48.738Z,4.70
2019-04-11T01:37:17.678Z,4.67
2019-04-11T01:39:59.672Z,4.60
2019-04-11T01:42:28.771Z,4.57
2019-04-11T01:44:57.920Z,4.63
2019-04-11T01:47:44.786Z,4.57
2019-04-11T01:50:13.956Z,4.85
2019-04-11T01:52:42.857Z,4.58
2019-04-11T01:55:12.309Z,4.51
2019-04-11T01:57:40.674Z,4.48
2019-04-11T02:00:10.799Z,4.42
2019-04-11T02:02:44.779Z,4.43
2019-04-11T02:05:25.477Z,4.42
2019-04-11T02:07:55.302Z,4.43
2019-04-11T02:10:24.374Z,4.42
2019-04-11T02:12:53.247Z,4.47
2019-04-11T02:15:21.985Z,4.43
2019-04-11T02:17:50.908Z,4.28
2019-04-11T02:20:19.075Z,4.24
2019-04-11T02:22:50.808Z,4.24
2019-04-11T02:25:36.552Z,4.21
2019-04-11T02:28:04.517Z,4.09
2019-04-11T02:30:34.056Z,4.13
2019-04-11T02:33:02.517Z,4.10
2019-04-11T02:35:31.722Z,4.12
2019-04-11T02:38:00.357Z,3.94
2019-04-11T02:40:30.139Z,3.97
2019-04-11T02:42:59.352Z,3.95
2019-04-11T02:45:39.742Z,3.97
2019-04-11T02:47:56.539Z,3.96
2019-04-11T02:50:26.493Z,4.19
2019-04-11T02:52:54.041Z,4.01
2019-04-11T02:55:22.892Z,4.05
2019-04-11T02:57:51.696Z,4.02
2019-04-11T03:00:20.959Z,4.00
2019-04-11T03:02:52.050Z,4.00
2019-04-11T03:05:18.542Z,3.98
2019-04-11T03:07:47.749Z,3.97
2019-04-11T03:10:16.523Z,3.97
2019-04-11T03:12:47.549Z,4.00
2019-04-11T03:15:29.025Z,3.89
2019-04-11T03:17:45.656Z,3.85
2019-04-11T03:20:22.042Z,3.91
2019-04-11T03:22:42.409Z,3.81
2019-04-11T03:25:09.668Z,3.73
2019-04-11T03:27:38.581Z,3.73
2019-04-11T03:30:12.091Z,3.70
2019-04-11T03:33:30.390Z,3.68
2019-04-11T03:36:08.576Z,3.94
2019-04-11T03:37:58.647Z,3.74
2019-04-11T03:40:22.654Z,3.73
2019-04-11T03:42:46.245Z,3.77
2019-04-11T03:45:23.692Z,3.68
2019-04-11T03:47:40.871Z,3.56
2019-04-11T03:50:07.184Z,3.60
2019-04-11T03:52:28.416Z,3.89
2019-04-11T03:54:58.391Z,3.68
2019-04-11T03:57:25.702Z,3.69
2019-04-11T03:59:55.039Z,3.66
2019-04-11T04:02:24.699Z,3.67
2019-04-11T04:04:53.998Z,3.71
2019-04-11T04:07:21.543Z,3.59
2019-04-11T04:09:51.223Z,3.54
2019-04-11T04:12:20.822Z,3.51
2019-04-11T04:15:29.584Z,3.46
2019-04-11T04:18:08.084Z,3.38
2019-04-11T04:20:52.988Z,3.34
2019-04-11T04:23:24.873Z,3.31
2019-04-11T04:25:54.307Z,3.29
2019-04-11T04:28:23.295Z,3.25
2019-04-11T04:30:51.682Z,3.26
2019-04-11T04:33:20.391Z,3.27
2019-04-11T04:35:49.595Z,3.29
2019-04-11T04:38:18.793Z,3.23
2019-04-11T04:41:00.387Z,3.17
2019-04-11T04:43:16.401Z,3.50
2019-04-11T04:46:06.585Z,3.25
2019-04-11T04:48:16.584Z,3.19
2019-04-11T04:50:42.268Z,3.05
2019-04-11T04:53:11.167Z,3.14
2019-04-11T04:55:41.192Z,3.10
2019-04-11T04:58:09.154Z,3.12
2019-04-11T05:00:37.840Z,3.13
2019-04-11T05:03:07.759Z,3.19
2019-04-11T05:05:35.878Z,3.21
2019-04-11T05:08:06.133Z,3.18
2019-04-11T05:10:33.904Z,3.24
2019-04-11T05:13:03.531Z,3.18
2019-04-11T05:15:32.445Z,3.20
2019-04-11T05:18:01.950Z,3.18
2019-04-11T05:20:30.197Z,3.25
2019-04-11T05:22:58.435Z,3.32
2019-04-11T05:25:28.569Z,3.34
2019-04-11T05:27:56.268Z,3.37
2019-04-11T05:30:25.310Z,3.43
2019-04-11T05:32:54.089Z,3.43
2019-04-11T05:35:22.989Z,3.75
2019-04-11T05:37:51.864Z,3.61
2019-04-11T05:40:21.127Z,3.67
2019-04-11T05:42:53.413Z,3.72
2019-04-11T05:45:22.504Z,3.79
2019-04-11T05:47:51.652Z,3.88
2019-04-11T05:50:36.307Z,4.10
2019-04-11T05:53:05.695Z,4.38
2019-04-11T05:55:43.220Z,4.51
2019-04-11T05:58:13.774Z,4.76
2019-04-11T06:00:55.986Z,4.88
2019-04-11T06:03:24.517Z,4.90
2019-04-11T06:06:11.010Z,5.30
2019-04-11T06:08:41.915Z,5.53
2019-04-11T06:11:43.680Z,5.93
2019-04-11T06:14:27.158Z,6.90
2019-04-11T06:16:59.199Z,8.09
2019-04-11T06:19:53.559Z,9.02
2019-04-11T06:22:21.678Z,9.76
2019-04-11T06:25:19.419Z,10.00
2019-04-11T06:28:02.094Z,10.21
2019-04-11T06:30:50.713Z,10.77
2019-04-11T06:33:37.730Z,11.48
2019-04-11T06:36:23.109Z,11.16
2019-04-11T06:38:58.749Z,11.16
2019-04-11T06:41:48.699Z,10.35
2019-04-11T06:44:25.804Z,10.08
2019-04-11T06:47:02.675Z,10.28
2019-04-11T06:49:39.109Z,10.57
2019-04-11T06:52:08.703Z,10.62
2019-04-11T06:54:52.542Z,10.72
2019-04-11T06:57:23.629Z,10.92
2019-04-11T06:59:52.453Z,11.09
2019-04-11T07:02:24.099Z,11.21
2019-04-11T07:04:52.386Z,11.34
2019-04-11T07:07:22.254Z,11.45
2019-04-11T07:09:59.784Z,12.07
2019-04-11T07:12:59.055Z,13.42
2019-04-11T07:15:37.667Z,14.95
2019-04-11T07:18:24.807Z,15.47
2019-04-11T07:20:58.858Z,14.98
2019-04-11T07:23:49.126Z,14.24
2019-04-11T07:26:20.916Z,13.53
2019-04-11T07:29:13.495Z,13.89
2019-04-11T07:32:04.998Z,13.75
2019-04-11T07:34:52.584Z,13.67
2019-04-11T07:37:38.720Z,13.88
2019-04-11T07:40:27.034Z,14.77
2019-04-11T07:43:11.174Z,15.40
2019-04-11T07:45:52.866Z,16.35
2019-04-11T07:48:50.540Z,17.39
2019-04-11T07:51:27.478Z,18.79
2019-04-11T07:54:00.666Z,19.39
2019-04-11T07:57:04.280Z,19.16
2019-04-11T07:59:47.432Z,20.09
2019-04-11T08:02:41.764Z,20.92
2019-04-11T08:05:50.885Z,20.93
2019-04-11T08:08:44.955Z,21.88
2019-04-11T08:11:27.552Z,22.75
2019-04-11T08:14:08.415Z,23.41
2019-04-11T08:17:00.021Z,24.00
2019-04-11T08:19:53.323Z,23.76
2019-04-11T08:22:41.336Z,23.21
2019-04-11T08:25:37.611Z,23.97
2019-04-11T08:28:09.293Z,23.80
2019-04-11T08:30:52.029Z,23.77
2019-04-11T08:33:19.315Z,23.65
2019-04-11T08:36:15.699Z,23.99
2019-04-11T08:38:44.735Z,24.68
2019-04-11T08:41:32.140Z,25.20
2019-04-11T08:44:06.320Z,25.52
2019-04-11T08:46:41.205Z,26.31
2019-04-11T08:49:17.330Z,25.30
2019-04-11T08:51:47.378Z,25.55
2019-04-11T08:54:50.136Z,25.57
2019-04-11T08:57:32.416Z,24.89
2019-04-11T09:00:20.726Z,25.41
2019-04-11T09:02:59.564Z,25.53
2019-04-11T09:05:47.358Z,25.39
2019-04-11T09:08:34.351Z,25.39
2019-04-11T09:11:39.102Z,25.85
2019-04-11T09:14:28.823Z,25.43
2019-04-11T09:17:21.491Z,26.00
2019-04-11T09:20:07.472Z,26.26
2019-04-11T09:22:57.870Z,27.01
2019-04-11T09:25:45.526Z,27.17
2019-04-11T09:28:17.417Z,27.13
2019-04-11T09:31:12.188Z,27.37
2019-04-11T09:33:59.444Z,27.01
2019-04-11T09:37:05.230Z,26.69
2019-04-11T09:39:53.098Z,27.04
2019-04-11T09:42:37.170Z,27.30
2019-04-11T09:45:25.763Z,27.45
2019-04-11T09:48:23.380Z,26.20
2019-04-11T09:51:07.342Z,26.63
2019-04-11T09:53:41.045Z,27.14
2019-04-11T09:56:27.169Z,26.43
2019-04-11T09:59:08.704Z,26.23
2019-04-11T10:02:00.854Z,26.97
2019-04-11T10:04:37.291Z,26.43
2019-04-11T10:07:25.801Z,25.16
2019-04-11T10:10:16.913Z,25.10
2019-04-11T10:13:12.877Z,24.19
2019-04-11T10:16:11.615Z,22.62
2019-04-11T10:19:08.589Z,23.00
2019-04-11T10:21:41.725Z,23.71
2019-04-11T10:24:22.509Z,23.65
2019-04-11T10:27:00.762Z,24.40
2019-04-11T10:29:50.419Z,22.72
2019-04-11T10:32:21.311Z,21.79
2019-04-11T10:35:12.729Z,21.54
2019-04-11T10:37:42.782Z,20.50
2019-04-11T10:40:30.219Z,19.28
2019-04-11T10:42:58.578Z,18.51
2019-04-11T10:45:32.299Z,17.44
2019-04-11T10:48:05.528Z,17.55
2019-04-11T10:50:52.857Z,19.17
2019-04-11T10:53:24.960Z,20.26
2019-04-11T10:56:16.494Z,21.74
2019-04-11T10:58:51.225Z,21.92
2019-04-11T11:01:37.703Z,22.53
2019-04-11T11:04:13.791Z,23.09
2019-04-11T11:06:42.737Z,22.16
2019-04-11T11:09:35.404Z,21.88
2019-04-11T11:12:25.386Z,22.34
2019-04-11T11:15:15.709Z,23.17
2019-04-11T11:18:38.211Z,23.79
2019-04-11T11:21:01.744Z,24.89
2019-04-11T11:23:52.554Z,24.91
2019-04-11T11:26:39.052Z,24.30
2019-04-11T11:29:45.386Z,23.17
2019-04-11T11:32:31.460Z,23.28
2019-04-11T11:35:39.032Z,23.10
2019-04-11T11:38:19.802Z,22.46
2019-04-11T11:41:05.920Z,20.71
2019-04-11T11:43:35.995Z,20.25
2019-04-11T11:46:19.630Z,19.60
2019-04-11T11:48:54.245Z,19.80
2019-04-11T11:51:43.671Z,20.47
2019-04-11T11:54:19.535Z,20.04
2019-04-11T11:56:50.586Z,19.99
2019-04-11T11:59:42.746Z,19.66
2019-04-11T12:02:17.332Z,18.74
2019-04-11T12:05:07.878Z,18.52
2019-04-11T12:08:00.414Z,18.51
2019-04-11T12:10:37.517Z,18.62
2019-04-11T12:13:26.246Z,18.59
2019-04-11T12:16:33.007Z,18.45
2019-04-11T12:19:22.090Z,18.40
2019-04-11T12:21:51.617Z,18.47
2019-04-11T12:24:44.937Z,18.40
2019-04-11T12:27:31.262Z,18.21
2019-04-11T12:30:26.640Z,17.87
2019-04-11T12:33:21.465Z,17.52
2019-04-11T12:35:59.008Z,17.68
2019-04-11T12:38:38.754Z,17.87
2019-04-11T12:41:27.395Z,17.94
2019-04-11T12:44:21.519Z,17.77
2019-04-11T12:47:33.437Z,17.66
2019-04-11T12:50:25.395Z,17.50
2019-04-11T12:53:10.601Z,17.11
2019-04-11T12:55:57.078Z,16.95
2019-04-11T12:58:32.914Z,16.85
2019-04-11T13:01:19.878Z,16.89
2019-04-11T13:04:06.493Z,16.61
2019-04-11T13:07:06.941Z,16.37
2019-04-11T13:09:53.869Z,16.61
2019-04-11T13:12:36.972Z,16.66
2019-04-11T13:15:24.064Z,16.19
2019-04-11T13:18:10.973Z,15.86
2019-04-11T13:20:49.715Z,15.78
2019-04-11T13:23:40.679Z,15.93
2019-04-11T13:26:30.909Z,16.25
2019-04-11T13:29:10.123Z,16.86
2019-04-11T13:31:57.084Z,16.95
2019-04-11T13:34:26.818Z,16.48
2019-04-11T13:37:33.529Z,16.40
2019-04-11T13:40:27.339Z,16.43
2019-04-11T13:43:23.018Z,16.61
2019-04-11T13:46:12.970Z,16.40
2019-04-11T13:49:00.582Z,16.21
2019-04-11T13:51:43.007Z,16.01
2019-04-11T13:54:49.144Z,15.70
2019-04-11T13:57:35.844Z,15.61
2019-04-11T14:00:29.908Z,15.62
2019-04-11T14:03:13.098Z,15.82
2019-04-11T14:05:42.660Z,16.05
2019-04-11T14:08:18.524Z,15.84
2019-04-11T14:11:04.050Z,15.87
2019-04-11T14:13:39.148Z,15.65
2019-04-11T14:16:13.290Z,15.64
2019-04-11T14:19:01.465Z,15.71
2019-04-11T14:21:30.677Z,15.63
2019-04-11T14:24:19.090Z,15.54
2019-04-11T14:26:52.270Z,15.51
2019-04-11T14:29:39.118Z,15.67
2019-04-11T14:32:33.244Z,15.83
2019-04-11T14:35:36.257Z,16.15
2019-04-11T14:38:16.576Z,16.33
2019-04-11T14:41:11.835Z,16.13
2019-04-11T14:43:49.918Z,15.95
2019-04-11T14:46:37.254Z,15.42
2019-04-11T14:49:11.213Z,15.11
2019-04-11T14:51:58.998Z,14.88
2019-04-11T14:54:58.935Z,14.74
2019-04-11T14:57:37.125Z,14.70
2019-04-11T15:00:21.913Z,14.53
2019-04-11T15:03:14.046Z,14.43
2019-04-11T15:05:46.692Z,14.53
2019-04-11T15:08:19.720Z,14.78
2019-04-11T15:11:18.429Z,14.80
2019-04-11T15:13:45.842Z,14.82
2019-04-11T15:16:41.982Z,14.80
2019-04-11T15:19:10.914Z,14.83
2019-04-11T15:22:11.520Z,14.92
2019-04-11T15:24:40.677Z,15.07
2019-04-11T15:27:31.849Z,15.27
2019-04-11T15:30:01.805Z,15.18
2019-04-11T15:32:48.708Z,15.16
2019-04-11T15:35:17.639Z,15.23
2019-04-11T15:38:04.598Z,15.07
2019-04-11T15:40:36.927Z,15.15
2019-04-11T15:43:43.219Z,15.05
2019-04-11T15:46:14.674Z,15.11
2019-04-11T15:49:00.617Z,14.91
2019-04-11T15:51:44.250Z,14.70
2019-04-11T15:54:32.353Z,14.58
2019-04-11T15:57:20.374Z,14.56
2019-04-11T16:00:08.410Z,14.59
2019-04-11T16:02:57.530Z,14.63
2019-04-11T16:05:48.526Z,14.78
2019-04-11T16:08:38.849Z,14.82
2019-04-11T16:11:23.842Z,14.70
2019-04-11T16:14:03.890Z,14.68
2019-04-11T16:16:50.689Z,14.57
2019-04-11T16:19:37.795Z,14.66
2019-04-11T16:22:28.726Z,14.56
2019-04-11T16:24:59.348Z,14.22
2019-04-11T16:27:46.008Z,14.03
2019-04-11T16:30:16.073Z,13.99
2019-04-11T16:32:49.932Z,13.86
2019-04-11T16:35:40.623Z,13.78
2019-04-11T16:38:10.592Z,13.62
2019-04-11T16:41:03.365Z,13.46
2019-04-11T16:43:32.256Z,13.18
2019-04-11T16:46:18.783Z,13.24
2019-04-11T16:48:47.682Z,13.16
2019-04-11T16:51:16.600Z,13.18
2019-04-11T16:53:45.518Z,13.00
2019-04-11T16:56:14.481Z,13.01
2019-04-11T16:58:43.421Z,12.97
2019-04-11T17:01:12.327Z,12.87
2019-04-11T17:03:41.247Z,12.67
2019-04-11T17:06:16.640Z,12.51
2019-04-11T17:08:51.627Z,12.41
2019-04-11T17:11:20.186Z,12.29
2019-04-11T17:13:49.156Z,12.31
2019-04-11T17:16:19.359Z,12.32
2019-04-11T17:18:48.314Z,12.47
2019-04-11T17:21:17.219Z,12.26
2019-04-11T17:23:47.109Z,12.20
2019-04-11T17:26:15.031Z,12.20
2019-04-11T17:28:43.916Z,12.32
2019-04-11T17:31:12.834Z,12.25
2019-04-11T17:33:41.737Z,12.28
2019-04-11T17:36:10.698Z,12.36
2019-04-11T17:38:39.597Z,12.43
2019-04-11T17:41:10.907Z,12.34
2019-04-11T17:43:37.468Z,12.33
2019-04-11T17:46:06.400Z,12.41
2019-04-11T17:48:35.310Z,12.36
2019-04-11T17:51:05.201Z,12.36
2019-04-11T17:53:33.233Z,12.26
2019-04-11T17:56:02.164Z,12.08
2019-04-11T17:58:31.055Z,11.96
2019-04-11T18:01:05.230Z,11.97
2019-04-11T18:03:29.916Z,11.93
2019-04-11T18:05:58.784Z,12.08
2019-04-11T18:08:27.685Z,11.88
2019-04-11T18:10:56.770Z,11.68
2019-04-11T18:13:25.539Z,11.62
2019-04-11T18:15:54.457Z,11.59
2019-04-11T18:18:23.375Z,11.62
2019-04-11T18:20:52.303Z,11.55
2019-04-11T18:23:21.218Z,11.40
2019-04-11T18:25:51.104Z,11.38
2019-04-11T18:28:21.676Z,11.37
2019-04-11T18:30:47.977Z,11.31
2019-04-11T18:33:16.900Z,11.32
2019-04-11T18:35:45.808Z,11.27
2019-04-11T18:38:14.723Z,11.22
2019-04-11T18:40:43.630Z,11.17
2019-04-11T18:43:15.997Z,11.42
2019-04-11T18:45:41.444Z,11.18
2019-04-11T18:48:10.424Z,11.13
2019-04-11T18:50:39.266Z,10.97
2019-04-11T18:53:08.271Z,10.93
2019-04-11T18:55:37.161Z,11.13
2019-04-11T18:58:06.149Z,10.86
2019-04-11T19:00:35.867Z,10.81
2019-04-11T19:03:03.978Z,10.78
2019-04-11T19:05:32.893Z,10.63
2019-04-11T19:08:01.849Z,10.64
2019-04-11T19:10:30.759Z,10.44
2019-04-11T19:12:59.636Z,10.38
2019-04-11T19:15:28.540Z,10.34
2019-04-11T19:18:06.083Z,10.28
2019-04-11T19:20:26.395Z,10.32
2019-04-11T19:22:55.285Z,10.27
2019-04-11T19:25:24.226Z,10.24
2019-04-11T19:27:54.208Z,10.18
2019-04-11T19:30:24.002Z,10.17
2019-04-11T19:32:50.929Z,10.14
2019-04-11T19:35:19.845Z,10.07
2019-04-11T19:37:48.739Z,10.04
2019-04-11T19:40:17.650Z,9.97
2019-04-11T19:42:48.826Z,9.90
2019-04-11T19:45:16.922Z,9.90
2019-04-11T19:47:44.341Z,9.91
2019-04-11T19:50:13.224Z,9.81
2019-04-11T19:52:45.816Z,9.70
2019-04-11T19:55:36.129Z,9.73
2019-04-11T19:58:05.344Z,9.71
2019-04-11T20:00:34.220Z,9.69
2019-04-11T20:03:03.162Z,9.63
2019-04-11T20:05:32.097Z,9.66
2019-04-11T20:08:00.946Z,9.73
2019-04-11T20:10:30.783Z,9.74
2019-04-11T20:12:59.119Z,9.74
2019-04-11T20:15:36.658Z,9.80
2019-04-11T20:17:56.628Z,9.86
2019-04-11T20:20:25.573Z,9.84
2019-04-11T20:22:59.198Z,9.82
2019-04-11T20:25:23.368Z,9.87
2019-04-11T20:27:52.269Z,9.87
2019-04-11T20:30:22.903Z,9.88
2019-04-11T20:32:50.096Z,9.84
2019-04-11T20:35:28.465Z,9.86
2019-04-11T20:37:47.923Z,9.86
2019-04-11T20:40:18.878Z,9.86
2019-04-11T20:42:45.746Z,9.86
2019-04-11T20:45:14.628Z,9.92
2019-04-11T20:47:43.541Z,9.93
2019-04-11T20:50:12.430Z,9.96
2019-04-11T20:52:41.379Z,9.91
2019-04-11T20:55:10.273Z,9.83
2019-04-11T20:57:40.495Z,9.83
2019-04-11T21:00:12.064Z,9.78
2019-04-11T21:02:37.105Z,9.77
2019-04-11T21:05:06.089Z,9.80
2019-04-11T21:07:34.963Z,9.70
2019-04-11T21:10:04.765Z,9.67
2019-04-11T21:12:37.061Z,9.72
2019-04-11T21:15:02.273Z,9.65
2019-04-11T21:17:31.123Z,9.63
2019-04-11T21:20:00.053Z,9.65
2019-04-11T21:22:28.931Z,9.56
2019-04-11T21:24:59.490Z,9.43
2019-04-11T21:27:28.772Z,9.45
2019-04-11T21:29:59.781Z,9.45
2019-04-11T21:32:24.656Z,9.44
2019-04-11T21:34:53.544Z,9.70
2019-04-11T21:37:22.502Z,9.37
2019-04-11T21:39:51.431Z,9.35
2019-04-11T21:42:20.315Z,9.24
2019-04-11T21:44:49.257Z,9.18
2019-04-11T21:47:18.191Z,9.13
2019-04-11T21:49:47.095Z,9.01
2019-04-11T21:52:15.977Z,8.93
2019-04-11T21:54:45.871Z,8.89
2019-04-11T21:57:13.772Z,8.78
2019-04-11T21:59:42.705Z,8.78
2019-04-11T22:02:11.594Z,8.76
2019-04-11T22:04:40.509Z,8.69
2019-04-11T22:07:09.390Z,8.61
2019-04-11T22:09:38.311Z,8.49
2019-04-11T22:12:08.244Z,8.50
2019-04-11T22:14:36.190Z,8.56
2019-04-11T22:17:05.108Z,8.63
2019-04-11T22:19:34.022Z,8.56
2019-04-11T22:22:02.929Z,8.51
2019-04-11T22:24:31.830Z,8.43
2019-04-11T22:27:00.805Z,8.43
2019-04-11T22:29:29.716Z,8.38
2019-04-11T22:31:58.666Z,8.32
2019-04-11T22:34:35.074Z,8.27
2019-04-11T22:37:04.253Z,8.22
2019-04-11T22:39:33.153Z,8.19
2019-04-11T22:42:02.057Z,8.09
2019-04-11T22:44:30.946Z,8.00
2019-04-11T22:46:59.883Z,8.03
2019-04-11T22:49:28.763Z,8.00
2019-04-11T22:51:57.646Z,7.92
2019-04-11T22:54:26.589Z,7.93
2019-04-11T22:56:55.483Z,7.99
2019-04-11T22:59:24.422Z,8.01
2019-04-11T23:01:53.481Z,7.99
2019-04-11T23:04:22.405Z,7.98
2019-04-11T23:06:51.327Z,7.97
2019-04-11T23:09:20.221Z,7.99
2019-04-11T23:11:49.126Z,8.02
2019-04-11T23:14:18.032Z,8.02
2019-04-11T23:16:46.914Z,8.04
2019-04-11T23:19:15.832Z,8.06
2019-04-11T23:21:44.734Z,8.03
2019-04-11T23:24:13.612Z,8.00
2019-04-11T23:26:42.557Z,7.99
2019-04-11T23:29:11.482Z,8.40
2019-04-11T23:31:40.392Z,8.21
2019-04-11T23:34:09.273Z,8.17
2019-04-11T23:36:38.191Z,8.17
2019-04-11T23:39:07.373Z,8.12
2019-04-11T23:41:36.265Z,8.08
2019-04-11T23:44:05.224Z,8.17
2019-04-11T23:46:34.124Z,8.44
2019-04-11T23:49:03.038Z,8.23
2019-04-11T23:51:31.953Z,8.18
2019-04-11T23:54:00.840Z,8.15
2019-04-11T23:56:30.730Z,8.13
2019-04-11T23:59:01.843Z,8.08
